createdAt,value
2024-03-01T00:00:27.505Z,100.00
2024-03-01T00:02:55.178Z,100.00
2024-03-01T00:05:23.901Z,100.00
2024-03-01T00:07:51.618Z,100.00
2024-03-01T00:10:19.401Z,100.00
2024-03-01T00:12:47.319Z,100.00
2024-03-01T00:15:16.468Z,100.00
2024-03-01T00:17:44.322Z,100.00
2024-03-01T00:20:13.558Z,100.00
2024-03-01T00:22:41.378Z,100.00
2024-03-01T00:25:09.785Z,100.00
2024-03-01T00:27:37.759Z,100.00
2024-03-01T00:30:06.309Z,100.00
2024-03-01T00:32:35.930Z,100.00
2024-03-01T00:35:03.805Z,100.00
2024-03-01T00:37:31.597Z,100.00
2024-03-01T00:39:59.380Z,100.00
2024-03-01T00:42:27.122Z,100.00
2024-03-01T00:44:54.826Z,100.00
2024-03-01T00:47:22.530Z,100.00
2024-03-01T00:49:51.959Z,100.00
2024-03-01T00:52:19.763Z,100.00
2024-03-01T00:54:50.343Z,100.00
2024-03-01T00:57:18.072Z,100.00
2024-03-01T00:59:45.802Z,100.00
2024-03-01T01:02:13.577Z,100.00
2024-03-01T01:04:41.329Z,100.00
2024-03-01T01:07:10.416Z,100.00
2024-03-01T01:09:39.853Z,100.00
2024-03-01T01:12:07.987Z,100.00
2024-03-01T01:14:38.769Z,100.00
2024-03-01T01:17:06.594Z,100.00
2024-03-01T01:19:42.127Z,100.00
2024-03-01T01:22:11.534Z,100.00
2024-03-01T01:24:39.348Z,100.00
2024-03-01T01:27:07.396Z,100.00
2024-03-01T01:29:37.398Z,100.00
2024-03-01T01:32:05.366Z,100.00
2024-03-01T01:34:35.033Z,100.00
2024-03-01T01:37:04.748Z,100.00
2024-03-01T01:39:34.578Z,100.00
2024-03-01T01:42:02.420Z,100.00
2024-03-01T01:44:30.579Z,100.00
2024-03-01T01:46:58.444Z,100.00
2024-03-01T01:49:29.344Z,100.00
2024-03-01T01:51:58.554Z,100.00
2024-03-01T01:54:26.965Z,100.00
2024-03-01T01:56:56.564Z,100.00
2024-03-01T01:59:24.667Z,100.00
2024-03-01T02:01:53.146Z,100.00
2024-03-01T02:04:21.392Z,100.00
2024-03-01T02:06:50.600Z,100.00
2024-03-01T02:09:20.171Z,100.00
2024-03-01T02:11:49.240Z,100.00
2024-03-01T02:14:18.455Z,100.00
2024-03-01T02:16:48.389Z,100.00
2024-03-01T02:19:17.472Z,100.00
2024-03-01T02:21:55.030Z,100.00
2024-03-01T02:24:25.163Z,100.00
2024-03-01T02:26:57.160Z,100.00
2024-03-01T02:29:25.794Z,100.00
2024-03-01T02:31:53.505Z,100.00
2024-03-01T02:34:21.532Z,100.00
2024-03-01T02:36:49.392Z,100.00
2024-03-01T02:39:19.676Z,100.00
2024-03-01T02:41:49.778Z,100.00
2024-03-01T02:44:17.618Z,100.00
2024-03-01T02:46:45.381Z,100.00
2024-03-01T02:49:13.162Z,100.00
2024-03-01T02:51:41.667Z,100.00
2024-03-01T02:54:09.365Z,100.00
2024-03-01T02:56:37.085Z,100.00
2024-03-01T02:59:06.196Z,100.00
2024-03-01T03:01:33.993Z,100.00
2024-03-01T03:04:01.764Z,100.00
2024-03-01T03:06:29.442Z,100.00
2024-03-01T03:08:57.107Z,100.00
2024-03-01T03:11:24.869Z,100.00
2024-03-01T03:13:52.565Z,100.00
2024-03-01T03:16:22.341Z,100.00
2024-03-01T03:18:50.164Z,100.00
2024-03-01T03:21:17.951Z,100.00
2024-03-01T03:23:46.493Z,100.00
2024-03-01T03:26:14.204Z,100.00
2024-03-01T03:28:41.881Z,100.00
2024-03-01T03:31:09.662Z,100.00
2024-03-01T03:33:39.084Z,100.00
2024-03-01T03:36:10.653Z,100.00
2024-03-01T03:38:38.317Z,100.00
2024-03-01T03:41:06.384Z,100.00
2024-03-01T03:43:34.152Z,100.00
2024-03-01T03:46:02.031Z,100.00
2024-03-01T03:48:29.680Z,100.00
2024-03-01T03:50:58.718Z,100.00
2024-03-01T03:53:26.896Z,100.00
2024-03-01T03:55:54.863Z,100.00
2024-03-01T03:58:22.681Z,100.00
2024-03-01T04:24:10.566Z,100.00
2024-03-01T04:26:38.395Z,100.00
2024-03-01T04:29:07.204Z,100.00
2024-03-01T04:31:37.102Z,100.00
2024-03-01T04:34:07.610Z,100.00
2024-03-01T04:36:35.662Z,100.00
2024-03-01T04:39:07.127Z,100.00
2024-03-01T04:41:36.385Z,100.00
2024-03-01T04:44:05.156Z,100.00
2024-03-01T04:46:33.126Z,100.00
2024-03-01T04:49:00.934Z,100.00
2024-03-01T04:51:29.943Z,100.00
2024-03-01T04:53:57.671Z,100.00
2024-03-01T04:56:25.345Z,100.00
2024-03-01T04:58:54.458Z,100.00
2024-03-01T05:01:24.111Z,100.00
2024-03-01T05:03:52.062Z,100.00
2024-03-01T05:06:20.076Z,100.00
2024-03-01T05:08:48.223Z,100.00
2024-03-01T05:11:18.627Z,100.00
2024-03-01T05:13:46.614Z,100.00
2024-03-01T05:16:20.070Z,99.77
2024-03-01T05:18:47.946Z,99.47
2024-03-01T05:21:15.655Z,99.92
2024-03-01T05:23:44.079Z,99.87
2024-03-01T05:26:11.877Z,99.99
2024-03-01T05:28:39.990Z,99.96
2024-03-01T05:31:18.777Z,99.92
2024-03-01T05:33:52.513Z,99.68
2024-03-01T05:36:20.558Z,100.00
2024-03-01T05:38:48.236Z,100.00
2024-03-01T05:41:15.938Z,100.00
2024-03-01T05:43:43.662Z,100.00
2024-03-01T05:46:17.100Z,100.00
2024-03-01T05:48:46.669Z,100.00
2024-03-01T05:51:15.664Z,100.00
2024-03-01T05:53:43.988Z,100.00
2024-03-01T05:56:19.663Z,100.00
2024-03-01T05:58:48.361Z,100.00
2024-03-01T06:01:18.142Z,100.00
2024-03-01T06:03:46.375Z,100.00
2024-03-01T06:06:16.662Z,100.00
2024-03-01T06:08:44.798Z,100.00
2024-03-01T06:11:12.670Z,100.00
2024-03-01T06:13:40.809Z,100.00
2024-03-01T06:16:09.409Z,100.00
2024-03-01T06:18:37.266Z,100.00
2024-03-01T06:21:05.481Z,100.00
2024-03-01T06:23:34.590Z,100.00
2024-03-01T06:26:02.520Z,100.00
2024-03-01T06:28:30.334Z,100.00
2024-03-01T06:30:58.166Z,100.00
2024-03-01T06:33:25.918Z,100.00
2024-03-01T06:35:57.262Z,100.00
2024-03-01T06:38:25.116Z,100.00
2024-03-01T06:40:54.494Z,99.81
2024-03-01T06:43:22.363Z,99.44
2024-03-01T06:45:50.080Z,100.00
2024-03-01T06:48:21.289Z,99.37
2024-03-01T06:50:50.234Z,99.59
2024-03-01T06:53:18.307Z,99.27
2024-03-01T06:55:46.075Z,99.87
2024-03-01T06:58:15.221Z,99.27
2024-03-01T07:00:47.840Z,99.96
2024-03-01T07:03:15.653Z,99.45
2024-03-01T07:05:43.619Z,99.04
2024-03-01T07:08:11.289Z,98.96
2024-03-01T07:10:39.346Z,98.99
2024-03-01T07:13:07.163Z,99.38
2024-03-01T07:15:38.222Z,98.95
2024-03-01T07:18:06.508Z,98.99
2024-03-01T07:20:34.371Z,99.79
2024-03-01T07:23:02.079Z,99.73
2024-03-01T07:25:29.849Z,99.31
2024-03-01T07:27:57.725Z,98.74
2024-03-01T07:30:25.482Z,98.85
2024-03-01T07:32:54.764Z,98.80
2024-03-01T07:35:22.552Z,99.24
2024-03-01T07:37:50.590Z,98.88
2024-03-01T07:40:18.425Z,98.92
2024-03-01T07:42:46.481Z,99.22
2024-03-01T07:45:14.646Z,98.58
2024-03-01T07:47:44.287Z,98.61
2024-03-01T07:50:13.783Z,98.66
2024-03-01T07:52:41.653Z,99.08
2024-03-01T07:55:09.492Z,98.67
2024-03-01T07:57:39.383Z,98.68
2024-03-01T08:00:09.294Z,98.47
2024-03-01T08:02:37.184Z,98.36
2024-03-01T08:05:07.538Z,97.92
2024-03-01T08:07:36.583Z,97.79
2024-03-01T08:10:05.963Z,98.03
2024-03-01T08:12:33.746Z,97.73
2024-03-01T08:15:08.379Z,97.53
2024-03-01T08:17:36.182Z,97.58
2024-03-01T08:20:12.478Z,97.74
2024-03-01T08:22:41.586Z,97.87
2024-03-01T08:25:12.144Z,97.41
2024-03-01T08:27:41.387Z,97.30
2024-03-01T08:30:36.512Z,96.85
2024-03-01T08:33:04.572Z,96.87
2024-03-01T08:35:32.545Z,96.77
2024-03-01T08:38:02.231Z,96.24
2024-03-01T08:40:50.467Z,96.16
2024-03-01T08:43:18.345Z,96.03
2024-03-01T08:45:46.592Z,95.77
2024-03-01T08:48:20.021Z,96.50
2024-03-01T08:50:50.738Z,96.07
2024-03-01T08:54:01.577Z,96.03
2024-03-01T08:56:35.739Z,95.12
2024-03-01T08:59:06.761Z,94.43
2024-03-01T09:01:47.091Z,93.83
2024-03-01T09:04:28.688Z,92.82
2024-03-01T09:07:09.650Z,92.91
2024-03-01T09:09:38.497Z,93.01
2024-03-01T09:12:10.821Z,93.43
2024-03-01T09:14:38.562Z,94.22
2024-03-01T09:17:07.633Z,93.30
2024-03-01T09:19:40.708Z,92.52
2024-03-01T09:22:08.665Z,91.33
2024-03-01T09:24:39.631Z,91.10
2024-03-01T09:27:22.311Z,91.65
2024-03-01T09:29:50.071Z,92.41
2024-03-01T09:32:18.177Z,92.21
2024-03-01T09:34:47.120Z,91.25
2024-03-01T09:37:17.446Z,90.78
2024-03-01T09:39:46.987Z,92.03
2024-03-01T09:42:38.870Z,92.26
2024-03-01T09:45:41.684Z,91.92
2024-03-01T09:48:16.560Z,91.21
2024-03-01T09:51:03.121Z,90.67
2024-03-01T09:53:44.331Z,91.07
2024-03-01T09:56:19.377Z,91.02
2024-03-01T09:58:57.878Z,90.66
2024-03-01T10:01:31.268Z,90.72
2024-03-01T10:04:12.631Z,90.50
2024-03-01T10:07:02.349Z,89.99
2024-03-01T10:09:50.128Z,89.37
2024-03-01T10:12:28.852Z,89.52
2024-03-01T10:15:02.873Z,89.17
2024-03-01T10:17:43.325Z,89.86
2024-03-01T10:20:26.444Z,89.73
2024-03-01T10:23:08.479Z,89.36
2024-03-01T10:25:53.035Z,88.92
2024-03-01T10:28:34.531Z,89.51
2024-03-01T10:31:12.737Z,89.40
2024-03-01T10:33:56.637Z,88.47
2024-03-01T10:36:36.073Z,88.39
2024-03-01T10:39:08.815Z,88.89
2024-03-01T10:41:49.599Z,88.34
2024-03-01T10:44:22.744Z,88.60
2024-03-01T10:46:57.572Z,88.18
2024-03-01T10:49:32.257Z,88.20
2024-03-01T10:52:07.516Z,87.34
2024-03-01T10:54:37.682Z,87.59
2024-03-01T10:57:09.560Z,85.09
2024-03-01T10:59:49.124Z,86.00
2024-03-01T11:02:22.795Z,86.59
2024-03-01T11:04:57.803Z,84.17
2024-03-01T11:07:33.765Z,84.22
2024-03-01T11:10:04.864Z,84.72
2024-03-01T11:12:37.618Z,85.23
2024-03-01T11:15:14.717Z,84.43
2024-03-01T11:17:47.487Z,83.59
2024-03-01T11:20:22.194Z,84.59
2024-03-01T11:23:01.609Z,83.54
2024-03-01T11:25:41.025Z,82.83
2024-03-01T11:28:12.616Z,83.52
2024-03-01T11:30:46.417Z,84.41
2024-03-01T11:33:17.851Z,83.59
2024-03-01T11:35:51.012Z,83.40
2024-03-01T11:38:29.910Z,82.12
2024-03-01T11:41:21.142Z,80.97
2024-03-01T11:44:03.642Z,81.13
2024-03-01T11:46:57.693Z,82.63
2024-03-01T11:49:43.352Z,81.67
2024-03-01T11:52:27.205Z,82.53
2024-03-01T11:55:07.432Z,82.10
2024-03-01T11:57:39.476Z,81.11
2024-03-01T12:00:37.145Z,81.54
2024-03-01T12:03:49.477Z,81.12
2024-03-01T12:06:29.264Z,82.07
2024-03-01T12:09:09.136Z,79.85
2024-03-01T12:11:51.554Z,80.35
2024-03-01T12:14:29.763Z,81.48
2024-03-01T12:17:05.105Z,79.75
2024-03-01T12:19:41.876Z,80.05
2024-03-01T12:22:32.337Z,80.49
2024-03-01T12:25:01.799Z,79.59
2024-03-01T12:27:40.940Z,79.95
2024-03-01T12:30:18.667Z,79.37
2024-03-01T12:32:57.712Z,79.13
2024-03-01T12:35:36.274Z,79.27
2024-03-01T12:38:17.712Z,78.31
2024-03-01T12:40:57.843Z,78.41
2024-03-01T12:43:45.679Z,78.41
2024-03-01T12:46:33.278Z,78.73
2024-03-01T12:49:17.245Z,78.19
2024-03-01T12:51:58.285Z,77.33
2024-03-01T12:54:39.766Z,77.68
2024-03-01T12:57:21.038Z,76.80
2024-03-01T12:59:55.833Z,77.41
2024-03-01T13:02:50.910Z,79.01
2024-03-01T13:05:26.071Z,78.80
2024-03-01T13:07:57.170Z,78.32
2024-03-01T13:10:27.956Z,77.72
2024-03-01T13:12:59.291Z,78.69
2024-03-01T13:15:32.954Z,78.51
2024-03-01T13:18:09.198Z,79.74
2024-03-01T13:20:47.710Z,80.00
2024-03-01T13:23:30.927Z,78.94
2024-03-01T13:26:15.410Z,78.02
2024-03-01T13:28:52.752Z,79.04
2024-03-01T13:31:27.707Z,79.35
2024-03-01T13:34:00.234Z,78.94
2024-03-01T13:36:31.759Z,78.68
2024-03-01T13:39:12.656Z,79.25
2024-03-01T13:41:50.109Z,79.42
2024-03-01T13:44:25.054Z,80.02
2024-03-01T13:47:02.195Z,80.99
2024-03-01T13:49:38.212Z,80.48
2024-03-01T13:52:08.862Z,81.17
2024-03-01T13:54:37.298Z,81.39
2024-03-01T13:57:12.634Z,80.89
2024-03-01T13:59:40.507Z,82.38
2024-03-01T14:02:09.045Z,81.66
2024-03-01T14:04:37.170Z,80.63
2024-03-01T14:07:05.799Z,80.27
2024-03-01T14:09:34.051Z,79.84
2024-03-01T14:12:01.759Z,79.53
2024-03-01T14:14:30.764Z,79.64
2024-03-01T14:17:00.690Z,80.46
2024-03-01T14:19:28.419Z,80.51
2024-03-01T14:21:56.223Z,80.00
2024-03-01T14:24:23.981Z,78.98
2024-03-01T14:26:51.837Z,80.73
2024-03-01T14:29:19.614Z,80.98
2024-03-01T14:32:07.415Z,79.38
2024-03-01T14:34:39.701Z,80.87
2024-03-01T14:37:10.996Z,80.58
2024-03-01T14:39:40.580Z,80.00
2024-03-01T14:42:18.358Z,78.39
2024-03-01T14:44:46.552Z,77.90
2024-03-01T14:47:15.978Z,77.51
2024-03-01T14:49:44.496Z,77.63
2024-03-01T14:52:12.860Z,76.95
2024-03-01T14:54:41.012Z,77.63
2024-03-01T14:57:08.845Z,76.43
2024-03-01T14:59:36.651Z,77.42
2024-03-01T15:02:05.369Z,75.97
2024-03-01T15:04:34.980Z,74.82
2024-03-01T15:07:04.938Z,75.75
2024-03-01T15:09:32.724Z,76.73
2024-03-01T15:12:08.095Z,76.66
2024-03-01T15:14:35.799Z,76.65
2024-03-01T15:17:09.174Z,75.80
2024-03-01T15:19:42.750Z,76.40
2024-03-01T15:22:13.741Z,77.66
2024-03-01T15:24:41.674Z,76.10
2024-03-01T15:27:09.570Z,76.82
2024-03-01T15:29:37.374Z,77.18
2024-03-01T15:32:05.804Z,77.11
2024-03-01T15:34:33.593Z,78.03
2024-03-01T15:37:04.449Z,77.79
2024-03-01T15:39:32.293Z,78.03
2024-03-01T15:42:00.093Z,79.13
2024-03-01T15:44:27.871Z,78.88
2024-03-01T15:46:55.796Z,78.64
2024-03-01T15:49:23.940Z,78.43
2024-03-01T15:51:51.886Z,78.98
2024-03-01T15:54:20.982Z,78.35
2024-03-01T15:56:48.735Z,78.62
2024-03-01T15:59:17.120Z,78.38
2024-03-01T16:01:45.187Z,79.10
2024-03-01T16:04:14.153Z,78.23
2024-03-01T16:06:42.215Z,79.12
2024-03-01T16:09:10.507Z,79.26
2024-03-01T16:11:43.645Z,79.90
2024-03-01T16:14:13.119Z,78.94
2024-03-01T16:16:40.964Z,79.62
2024-03-01T16:19:09.243Z,80.61
2024-03-01T16:21:37.303Z,80.69
2024-03-01T16:24:10.292Z,81.65
2024-03-01T16:26:38.513Z,81.72
2024-03-01T16:29:08.023Z,81.83
2024-03-01T16:31:36.299Z,83.70
2024-03-01T16:34:05.473Z,84.57
2024-03-01T16:36:33.372Z,85.94
2024-03-01T16:39:01.490Z,86.57
2024-03-01T16:41:40.359Z,87.89
2024-03-01T16:44:29.896Z,89.19
2024-03-01T16:46:57.993Z,89.90
2024-03-01T16:49:38.193Z,89.97
2024-03-01T16:52:08.734Z,89.90
2024-03-01T16:54:37.021Z,89.83
2024-03-01T16:57:09.965Z,89.78
2024-03-01T16:59:40.058Z,90.52
2024-03-01T17:02:21.940Z,91.03
2024-03-01T17:04:50.390Z,91.33
2024-03-01T17:07:23.756Z,91.31
2024-03-01T17:09:52.836Z,91.45
2024-03-01T17:12:21.093Z,91.68
2024-03-01T17:14:50.151Z,91.83
2024-03-01T17:17:18.269Z,92.68
2024-03-01T17:19:48.842Z,93.04
2024-03-01T17:22:18.081Z,92.73
2024-03-01T17:24:47.538Z,93.39
2024-03-01T17:27:15.504Z,93.49
2024-03-01T17:29:44.344Z,93.03
2024-03-01T17:32:13.571Z,93.30
2024-03-01T17:34:41.350Z,93.96
2024-03-01T17:37:09.255Z,93.94
2024-03-01T17:39:37.209Z,94.33
2024-03-01T17:42:05.646Z,94.27
2024-03-01T17:44:33.365Z,94.21
2024-03-01T17:47:01.127Z,93.92
2024-03-01T17:49:30.347Z,93.57
2024-03-01T17:51:58.676Z,94.57
2024-03-01T17:54:26.380Z,94.95
2024-03-01T17:56:54.103Z,94.66
2024-03-01T17:59:22.957Z,95.16
2024-03-01T18:01:50.728Z,95.80
2024-03-01T18:04:22.583Z,96.02
2024-03-01T18:06:51.738Z,96.69
2024-03-01T18:09:19.510Z,96.86
2024-03-01T18:11:47.355Z,97.20
2024-03-01T18:14:15.135Z,96.99
2024-03-01T18:16:43.184Z,97.07
2024-03-01T18:19:14.039Z,96.51
2024-03-01T18:21:42.147Z,96.02
2024-03-01T18:24:13.840Z,94.98
2024-03-01T18:26:43.116Z,95.48
2024-03-01T18:29:10.937Z,95.32
2024-03-01T18:31:38.896Z,95.08
2024-03-01T18:34:06.650Z,95.40
2024-03-01T18:36:34.363Z,95.67
2024-03-01T18:39:02.416Z,95.88
2024-03-01T18:41:33.734Z,96.07
2024-03-01T18:44:02.881Z,95.98
2024-03-01T18:46:31.095Z,96.07
2024-03-01T18:48:59.929Z,96.32
2024-03-01T18:51:27.761Z,96.28
2024-03-01T18:53:55.442Z,96.15
2024-03-01T18:56:23.267Z,95.97
2024-03-01T18:58:52.335Z,95.78
2024-03-01T19:01:20.248Z,95.91
2024-03-01T19:03:48.276Z,95.88
2024-03-01T19:06:16.041Z,96.16
2024-03-01T19:08:43.726Z,96.57
2024-03-01T19:11:11.558Z,96.56
2024-03-01T19:13:39.504Z,96.28
2024-03-01T19:16:08.800Z,96.16
2024-03-01T19:18:36.525Z,95.90
2024-03-01T19:21:04.573Z,95.73
2024-03-01T19:23:33.351Z,95.80
2024-03-01T19:26:03.786Z,95.82
2024-03-01T19:28:32.706Z,95.82
2024-03-01T19:31:01.977Z,95.38
2024-03-01T19:33:31.093Z,95.92
2024-03-01T19:36:00.413Z,96.19
2024-03-01T19:38:28.198Z,96.23
2024-03-01T19:40:56.276Z,96.32
2024-03-01T19:43:24.325Z,96.41
2024-03-01T19:45:52.576Z,96.54
2024-03-01T19:48:22.343Z,96.56
2024-03-01T19:50:51.777Z,96.45
2024-03-01T19:53:19.692Z,96.44
2024-03-01T19:55:47.459Z,96.67
2024-03-01T19:58:15.217Z,96.84
2024-03-01T20:00:42.977Z,96.76
2024-03-01T20:03:10.666Z,96.96
2024-03-01T20:05:38.832Z,96.98
2024-03-01T20:08:08.323Z,97.25
2024-03-01T20:10:36.082Z,97.86
2024-03-01T20:13:04.053Z,97.72
2024-03-01T20:15:33.546Z,97.87
2024-03-01T20:18:01.346Z,97.96
2024-03-01T20:20:29.080Z,97.60
2024-03-01T20:22:56.810Z,98.21
2024-03-01T20:25:26.477Z,97.98
2024-03-01T20:27:54.332Z,98.10
2024-03-01T20:30:22.164Z,98.50
2024-03-01T20:32:51.150Z,98.78
2024-03-01T20:35:19.073Z,98.77
2024-03-01T20:37:47.077Z,99.01
2024-03-01T20:40:15.273Z,98.80
2024-03-01T20:42:44.394Z,98.97
2024-03-01T20:45:12.143Z,99.30
2024-03-01T20:47:39.918Z,99.35
2024-03-01T20:50:08.896Z,99.52
2024-03-01T20:52:36.975Z,99.53
2024-03-01T20:55:06.831Z,99.56
2024-03-01T20:57:35.011Z,99.79
2024-03-01T21:00:04.327Z,99.38
2024-03-01T21:02:32.005Z,99.21
2024-03-01T21:04:59.713Z,99.00
2024-03-01T21:07:29.060Z,98.86
2024-03-01T21:09:59.788Z,98.94
2024-03-01T21:12:27.476Z,98.69
2024-03-01T21:14:55.214Z,98.45
2024-03-01T21:17:24.615Z,98.08
2024-03-01T21:19:52.979Z,97.84
2024-03-01T21:24:52.401Z,96.66
2024-03-01T21:27:20.124Z,96.12
2024-03-01T21:29:47.811Z,95.04
2024-03-01T21:32:21.766Z,94.26
2024-03-01T21:34:54.134Z,93.83
2024-03-01T21:37:21.835Z,93.84
2024-03-01T21:39:49.584Z,93.05
2024-03-01T21:42:17.663Z,92.75
2024-03-01T21:44:45.762Z,92.43
2024-03-01T21:47:13.518Z,91.79
2024-03-01T21:49:41.468Z,91.67
2024-03-01T21:52:11.298Z,90.51
2024-03-01T21:54:40.142Z,90.79
2024-03-01T21:57:07.914Z,90.56
2024-03-01T21:59:37.418Z,90.41
2024-03-01T22:02:07.528Z,90.41
2024-03-01T22:04:35.569Z,89.23
2024-03-01T22:07:03.347Z,89.52
2024-03-01T22:09:32.521Z,90.30
2024-03-01T22:12:00.273Z,89.33
2024-03-01T22:14:27.980Z,89.08
2024-03-01T22:16:56.408Z,88.34
2024-03-01T22:19:24.437Z,88.94
2024-03-01T22:21:52.407Z,88.97
2024-03-01T22:24:20.318Z,88.60
2024-03-01T22:26:49.554Z,87.50
2024-03-01T22:29:17.275Z,87.05
2024-03-01T22:31:45.502Z,87.99
2024-03-01T22:34:14.049Z,87.69
2024-03-01T22:36:42.105Z,85.88
2024-03-01T22:39:10.569Z,86.69
2024-03-01T22:41:38.280Z,85.68
2024-03-01T22:44:07.399Z,85.81
2024-03-01T22:46:35.210Z,84.95
2024-03-01T22:49:03.190Z,84.77
2024-03-01T22:51:32.928Z,84.30
2024-03-01T22:54:00.963Z,83.94
2024-03-01T22:56:33.460Z,84.73
2024-03-01T22:59:01.519Z,84.03
2024-03-01T23:01:33.312Z,84.11
2024-03-01T23:04:02.099Z,84.25
2024-03-01T23:06:30.100Z,83.16
2024-03-01T23:08:58.964Z,83.69
2024-03-01T23:11:39.064Z,84.14
2024-03-01T23:14:10.564Z,83.49
2024-03-01T23:16:39.597Z,83.38
2024-03-01T23:19:07.398Z,83.67
2024-03-01T23:21:35.147Z,83.09
2024-03-01T23:24:02.875Z,82.21
2024-03-01T23:26:31.155Z,82.56
2024-03-01T23:28:58.883Z,82.27
2024-03-01T23:31:26.620Z,82.86
2024-03-01T23:33:55.769Z,82.39
2024-03-01T23:36:23.602Z,81.90
2024-03-01T23:38:51.359Z,82.23
2024-03-01T23:41:19.127Z,82.29
2024-03-01T23:43:46.801Z,84.11
2024-03-01T23:46:15.449Z,82.81
2024-03-01T23:48:43.729Z,83.12
2024-03-01T23:51:15.040Z,83.06
2024-03-01T23:53:43.118Z,82.65
2024-03-01T23:56:10.782Z,82.45
2024-03-01T23:58:40.374Z,82.79
